Terminal Aerodrome Forecast
Issued by NWS

Home | Current Version | Previous Version | Text Only | Print | Product List | Glossary On
Versions: 1 2 3 4 5 6 7 8 9 10 11 12 13 14 15 16
000
FTUS43 KDTX 240820 AAA
TAFMBS
TAF AMD
KMBS 240820Z 2408/2506 18005KT P6SM SCT100 OVC250
     FM240900 18006KT P6SM SCT060 BKN100
     FM241200 22011KT 6SM -SHRA BKN040 OVC080
     FM241800 22013G20KT P6SM SCT050 BKN100
     FM250000 20007KT P6SM BKN100 OVC250 PROB30 2500/2503 3SM TSRA
      OVC040CB=

USA.gov is the U.S. government's official web portal to all federal, state and local government web resources and services.